Time;durP1;ratioP1;P1;durP2;ratioP2;P2;SDS_P1;SDS_P2;PMS_P1;PMS_P2;Temp;Humidity;BMP_temperature;BMP_pressure;BME280_temperature;BME280_humidity;BME280_pressure;Samples;Min_cycle;Max_cycle;Signal;HPM_P1;HPM_P2
2024/02/01 01:03:32;;;;;;;;;;;;;;;;;;;;;
2024/02/01 01:40:41;;;;;;;;;0.00;0.00;;;;;11.94;100.00;102823.50;5942954;23;45337;-94
2024/02/01 01:43:16;;;;;;;;;0.00;0.00;;;;;11.95;100.00;102813.94;6063616;23;45435;-95
2024/02/01 02:46:04;;;;;;;;;;;;;;;;;;;;;
2024/02/01 02:49:31;;;;;;;;;;;;;;;;;;;;;
2024/02/01 02:52:53;;;;;;;;;0.00;0.00;;;;;12.10;100.00;102813.91;6037068;23;74575;-95
2024/02/01 02:58:47;;;;;;;;;0.00;0.00;;;;;12.12;100.00;102800.84;6077969;23;45389;-94
2024/02/01 03:02:13;;;;;;;;;0.00;0.00;;;;;12.10;100.00;102786.94;5997928;23;45574;-95
2024/02/01 03:05:22;;;;;;;;;;;;;;;;;;;;;
2024/02/01 03:09:26;;;;;;;;;;;;;;;;;;;;;
2024/02/01 03:26:10;;;;;;;;;0.00;0.00;;;;;12.15;100.00;102808.69;5750386;24;44774;-96
2024/02/01 03:29:27;;;;;;;;;0.00;0.00;;;;;12.08;100.00;102793.91;5709837;24;44815;-95
2024/02/01 03:32:21;;;;;;;;;0.00;0.00;;;;;12.14;100.00;102799.09;5717464;24;47000;-94
2024/02/01 03:35:39;;;;;;;;;0.00;0.00;;;;;12.07;100.00;102785.22;5731476;24;45944;-95
2024/02/01 03:38:59;;;;;;;;;0.00;0.00;;;;;12.02;100.00;102776.50;5746913;24;44908;-96
2024/02/01 03:47:46;;;;;;;;;0.00;0.00;;;;;11.91;100.00;102800.00;5795491;24;44785;-94
2024/02/01 03:57:25;;;;;;;;;0.00;0.00;;;;;11.82;100.00;102776.50;5863921;24;46397;-95
2024/02/01 04:04:01;;;;;;;;;;;;;;;;;;;;;
2024/02/01 04:10:43;;;;;;;;;0.00;0.00;;;;;11.91;100.00;102783.50;5749985;24;46346;-95
2024/02/01 04:39:07;;;;;;;;;;;;;;;;;;;;;
2024/02/01 04:41:56;;;;;;;;;;;;;;;;;;;;;
2024/02/01 04:45:21;;;;;;;;;0.00;0.00;;;;;11.96;100.00;102792.16;6080657;23;74369;-94
2024/02/01 04:55:23;;;;;;;;;0.00;0.00;;;;;11.62;100.00;102787.81;5831666;24;45521;-95
2024/02/01 04:57:58;;;;;;;;;0.00;0.00;;;;;11.49;100.00;102786.09;5808597;24;45416;-94
2024/02/01 05:04:15;;;;;;;;;0.00;0.00;;;;;11.35;100.00;102774.81;5839238;24;45327;-95
2024/02/01 06:22:05;;;;;;;;;0.00;0.00;;;;;11.20;100.00;102809.56;6347424;22;47446;-91
2024/02/01 06:24:50;;;;;;;;;;;;;;;;;;;;;
2024/02/01 06:27:18;;;;;;;;;0.00;0.00;;;;;11.30;100.00;102805.22;6344950;22;69214;-90
2024/02/01 06:29:46;;;;;;;;;0.00;0.00;;;;;11.40;100.00;102815.66;6317659;22;45375;-90
2024/02/01 06:32:19;;;;;;;;;0.00;0.00;;;;;11.40;100.00;102817.38;6312050;22;47182;-88
2024/02/01 06:34:53;;;;;;;;;0.00;0.00;;;;;11.42;100.00;102831.28;6343828;22;45343;-94
2024/02/01 06:37:19;;;;;;;;;0.00;0.00;;;;;11.40;100.00;102836.53;6340769;22;45253;-88
2024/02/01 06:42:32;;;;;;;;;0.00;0.00;;;;;11.51;100.00;102853.91;6343701;22;45826;-89
2024/02/01 06:45:19;;;;;;;;;0.00;0.00;;;;;11.35;100.00;102846.06;6339988;22;45239;-88
2024/02/01 06:47:49;;;;;;;;;0.00;0.00;;;;;11.36;100.00;102849.53;6338680;22;45254;-86
2024/02/01 06:50:34;;;;;;;;;0.00;0.00;;;;;11.33;100.00;102853.03;6338989;22;45328;-92
2024/02/01 06:53:08;;;;;;;;;0.00;0.00;;;;;11.36;100.00;102845.19;6342016;22;46082;-91
2024/02/01 06:55:43;;;;;;;;;0.00;0.00;;;;;11.29;100.00;102840.84;6341045;22;45228;-94
2024/02/01 06:58:17;;;;;;;;;0.00;0.00;;;;;11.32;100.00;102847.81;6343121;22;45293;-93
2024/02/01 07:03:21;;;;;;;;;0.00;0.00;;;;;11.37;100.00;102861.72;6343225;22;45522;-94
2024/02/01 07:16:43;;;;;;;;;0.00;0.00;;;;;11.57;100.00;102878.28;6342747;22;45240;-93
2024/02/01 07:22:09;;;;;;;;;0.75;0.75;;;;;11.59;100.00;102891.31;6345068;22;45287;-91
2024/02/01 07:57:52;;;;;;;;;0.00;0.00;;;;;11.75;100.00;102926.09;6273345;22;45422;-91
2024/02/01 08:00:28;;;;;;;;;0.00;0.00;;;;;11.76;100.00;102926.09;6227493;22;45311;-84
2024/02/01 08:03:11;;;;;;;;;0.00;0.00;;;;;11.81;100.00;102927.00;6247845;22;45337;-88
2024/02/01 08:08:28;;;;;;;;;1.00;1.00;;;;;11.84;100.00;102939.16;6272449;22;45647;-89
2024/02/01 08:10:56;;;;;;;;;0.00;0.00;;;;;11.81;100.00;102927.00;6270414;22;52538;-88
2024/02/01 08:13:26;;;;;;;;;0.00;0.00;;;;;11.90;100.00;102928.75;6220372;22;45541;-87
2024/02/01 08:15:56;;;;;;;;;0.00;0.00;;;;;11.94;100.00;102934.84;6220749;22;45275;-88
2024/02/01 08:21:26;;;;;;;;;;;;;;;;;;;;;
2024/02/01 08:23:54;;;;;;;;;0.00;0.00;;;;;12.13;100.00;102934.00;6241607;22;67710;-88
2024/02/01 08:26:21;;;;;;;;;0.00;0.00;;;;;12.15;100.00;102934.00;6243794;22;45420;-89
2024/02/01 08:28:47;;;;;;;;;0.00;0.00;;;;;12.13;100.00;102933.13;6246669;22;45451;-88
2024/02/01 08:31:17;;;;;;;;;0.00;0.00;;;;;12.19;100.00;102944.41;6271909;22;45231;-87
2024/02/01 08:33:44;;;;;;;;;0.00;0.00;;;;;12.22;100.00;102946.19;6279601;22;45408;-87
2024/02/01 08:36:12;;;;;;;;;0.00;0.00;;;;;12.44;100.00;102951.38;6337368;22;45364;-90
2024/02/01 08:38:38;;;;;;;;;12.00;12.00;;;;;12.29;100.00;102953.09;6336488;22;46296;-89
2024/02/01 08:41:04;;;;;;;;;0.00;0.00;;;;;12.11;100.00;102946.19;6339724;22;45287;-90
2024/02/01 08:43:40;;;;;;;;;0.00;0.00;;;;;12.09;100.00;102945.31;6339185;22;45352;-91
2024/02/01 08:46:12;;;;;;;;;0.00;0.00;;;;;12.09;100.00;102945.31;6335815;22;45506;-93
2024/02/01 08:48:39;;;;;;;;;0.00;0.00;;;;;12.15;100.00;102957.50;6310570;22;47920;-87
2024/02/01 08:51:04;;;;;;;;;0.00;0.00;;;;;12.17;100.00;102969.66;6311835;22;45346;-93
2024/02/01 08:53:31;;;;;;;;;0.00;0.00;;;;;12.18;100.00;102970.53;6337509;22;45209;-88
2024/02/01 08:56:36;;;;;;;;;0.00;0.00;;;;;12.16;100.00;102967.03;6308899;22;45292;-91
2024/02/01 09:08:46;;;;;;;;;0.00;0.00;;;;;12.33;100.00;102978.38;6316585;22;45140;-91
2024/02/01 09:11:24;;;;;;;;;0.00;0.00;;;;;12.58;100.00;102978.34;6310449;22;45357;-92
2024/02/01 09:13:49;;;;;;;;;0.00;0.00;;;;;12.68;100.00;102981.81;6306600;22;45255;-87
2024/02/01 09:16:32;;;;;;;;;0.00;0.00;;;;;12.74;100.00;102985.28;6305802;22;45623;-89
2024/02/01 09:19:00;;;;;;;;;0.00;0.00;;;;;12.54;100.00;102972.25;6279558;22;45371;-90
2024/02/01 09:21:38;;;;;;;;;0.00;0.00;;;;;12.63;100.00;102976.59;6304701;22;46695;-89
2024/02/01 09:28:12;;;;;;;;;;;;;;;;;;;;;
2024/02/01 09:30:51;;;;;;;;;0.00;0.00;;;;;12.82;100.00;102990.50;6233560;22;45619;-89
2024/02/01 09:33:32;;;;;;;;;;;;;;;;;;;;;
2024/02/01 09:36:18;;;;;;;;;0.00;0.00;;;;;12.87;100.00;102993.97;6235318;22;73944;-88
2024/02/01 09:38:44;;;;;;;;;0.00;0.00;;;;;12.91;100.00;103011.38;6235139;22;45464;-88
2024/02/01 09:41:25;;;;;;;;;0.00;0.00;;;;;12.94;100.00;103005.25;6191182;22;45324;-89
2024/02/01 09:44:17;;;;;;;;;;;;;;;;;;;;;
2024/02/01 09:46:57;;;;;;;;;0.00;0.00;;;;;13.14;100.00;103003.44;6240910;22;72452;-89
2024/02/01 09:49:26;;;;;;;;;0.00;0.00;;;;;13.22;100.00;103008.66;6217392;22;45271;-90
2024/02/01 09:52:04;;;;;;;;;;;;;;;;;;;;;
2024/02/01 10:11:41;;;;;;;;;0.00;0.00;;;;;13.28;100.00;103018.22;5112793;27;46040;-88
2024/02/01 10:14:10;;;;;;;;;0.00;0.00;;;;;13.28;100.00;103010.38;5095893;27;45288;-90
2024/02/01 10:16:35;;;;;;;;;0.00;0.00;;;;;13.34;100.00;103026.97;5107208;27;45646;-90
2024/02/01 10:19:18;;;;;;;;;;;;;;;;;;;;;
2024/02/01 10:22:08;;;;;;;;;0.00;0.00;;;;;13.33;100.00;103032.19;5089892;27;75486;-92
2024/02/01 10:31:24;;;;;;;;;;;;;;;;;;;;;
2024/02/01 10:33:53;;;;;;;;;0.00;0.00;;;;;13.49;100.00;103033.00;5034105;28;76539;-91
2024/02/01 10:36:36;;;;;;;;;0.00;0.00;;;;;13.48;100.00;103026.03;5043138;28;45455;-92
2024/02/01 10:39:20;;;;;;;;;0.00;0.00;;;;;13.52;100.00;103033.88;5052144;28;47181;-91
2024/02/01 10:41:58;;;;;;;;;0.00;0.00;;;;;13.53;100.00;103046.06;5033991;28;45532;-88
2024/02/01 10:44:45;;;;;;;;;0.00;0.00;;;;;13.49;100.00;103038.25;5022043;28;47134;-92
2024/02/01 10:47:21;;;;;;;;;0.00;0.00;;;;;13.48;100.00;103044.34;5048010;28;45720;-92
2024/02/01 10:49:52;;;;;;;;;0.00;0.00;;;;;13.57;100.00;103051.28;5050159;28;45491;-88
2024/02/01 10:52:21;;;;;;;;;0.00;0.00;;;;;13.54;100.00;103049.56;5047989;28;45384;-90
2024/02/01 10:54:49;;;;;;;;;0.00;0.00;;;;;13.60;100.00;103046.06;5030925;28;46614;-90
2024/02/01 10:57:24;;;;;;;;;0.00;0.00;;;;;13.67;100.00;103050.34;5051182;28;45528;-90
2024/02/01 10:59:50;;;;;;;;;0.00;0.00;;;;;13.69;100.00;103048.63;5032570;28;45549;-90
2024/02/01 11:02:36;;;;;;;;;0.00;0.00;;;;;13.66;100.00;103039.03;5053802;28;46098;-92
2024/02/01 11:05:01;;;;;;;;;0.00;0.00;;;;;13.79;100.00;103038.97;5064819;27;46246;-90
2024/02/01 11:07:28;;;;;;;;;0.00;0.00;;;;;13.89;100.00;103038.91;5109581;27;45375;-88
2024/02/01 11:10:12;;;;;;;;;0.00;0.00;;;;;13.92;100.00;103025.78;5120701;27;45525;-88
2024/02/01 11:12:40;;;;;;;;;0.00;0.00;;;;;14.01;100.00;103030.09;5091749;27;45569;-90
2024/02/01 11:15:16;;;;;;;;;0.00;0.00;;;;;14.04;100.00;103026.56;5073262;27;47768;-91
2024/02/01 11:17:43;;;;;;;;;0.00;0.00;;;;;14.06;100.00;103030.03;5076862;27;45999;-86
2024/02/01 11:21:19;;;;;;;;;;;;;;;;;;;;;
2024/02/01 11:23:42;;;;;;;;;0.00;0.00;;;;;14.09;100.00;103036.13;5014664;28;45514;-90
2024/02/01 11:26:15;;;;;;;;;0.00;0.00;;;;;14.16;100.00;103033.50;4983203;28;59216;-89
2024/02/01 11:28:48;;;;;;;;;0.00;0.00;;;;;14.26;100.00;103040.38;5008065;28;45308;-90
2024/02/01 11:31:25;;;;;;;;;0.00;0.00;;;;;14.23;100.00;103033.44;4998260;28;45401;-90
2024/02/01 11:34:08;;;;;;;;;0.00;0.00;;;;;14.30;100.00;103036.84;5014601;28;45399;-93
2024/02/01 11:36:35;;;;;;;;;0.00;0.00;;;;;14.34;100.00;103038.59;4984480;28;47456;-89
2024/02/01 11:41:53;;;;;;;;;0.00;0.00;;;;;14.35;100.00;103044.69;4999806;28;45413;-89
2024/02/01 11:44:23;;;;;;;;;0.00;0.00;;;;;14.29;100.00;103037.75;5013796;28;45503;-86
2024/02/01 11:46:50;;;;;;;;;0.00;0.00;;;;;14.27;100.00;103042.13;4999472;28;46278;-86
2024/02/01 11:49:30;;;;;;;;;0.00;0.00;;;;;14.22;100.00;103039.53;5015673;28;45421;-86
2024/02/01 11:52:13;;;;;;;;;0.00;0.00;;;;;14.17;100.00;103025.63;4999285;28;45421;-85
2024/02/01 11:54:53;;;;;;;;;0.00;0.00;;;;;14.29;100.00;103029.91;5014540;28;45499;-85
2024/02/01 11:57:25;;;;;;;;;0.00;0.00;;;;;14.39;100.00;103014.97;5015004;28;46716;-87
2024/02/01 11:59:55;;;;;;;;;0.00;0.00;;;;;14.62;100.00;103002.56;5033193;28;45454;-88
2024/02/01 12:02:22;;;;;;;;;0.00;0.00;;;;;14.87;100.00;103005.78;5093838;27;45456;-90
2024/02/01 12:04:47;;;;;;;;;0.00;0.00;;;;;15.22;100.00;103012.38;5074831;28;45356;-88
2024/02/01 12:07:21;;;;;;;;;0.00;0.00;;;;;15.40;100.00;103015.69;5083316;27;46660;-91
2024/02/01 12:09:49;;;;;;;;;0.00;0.00;;;;;15.40;100.00;103011.28;5062083;28;45342;-89
2024/02/01 12:12:23;;;;;;;;;0.00;0.00;;;;;15.37;100.00;103013.94;5076456;27;45307;-88
2024/02/01 12:14:50;;;;;;;;;0.00;0.00;;;;;15.27;100.00;103015.81;5077923;27;45444;-88
2024/02/01 12:17:16;;;;;;;;;0.00;0.00;;;;;15.16;100.00;103015.09;5076045;27;45624;-88
2024/02/01 12:19:42;;;;;;;;;0.00;0.00;;;;;14.97;100.00;103003.06;5077784;27;45408;-85
2024/02/01 12:22:08;;;;;;;;;0.00;0.00;;;;;14.87;100.00;103010.16;5074423;27;45600;-86
2024/02/01 12:24:40;;;;;;;;;0.00;0.00;;;;;14.71;100.00;103015.56;5062682;28;45612;-88
2024/02/01 12:27:08;;;;;;;;;0.00;0.00;;;;;14.56;100.00;103018.31;5071751;27;47944;-88
2024/02/01 12:29:34;;;;;;;;;0.00;0.00;;;;;14.50;100.00;103023.59;5076185;28;45457;-88
2024/02/01 12:32:11;;;;;;;;;0.00;0.00;;;;;14.41;100.00;103024.56;5076212;27;45671;-86
2024/02/01 12:34:37;;;;;;;;;0.00;0.00;;;;;14.40;100.00;103025.44;5058499;28;45300;-88
2024/02/01 12:37:05;;;;;;;;;0.00;0.00;;;;;14.39;100.00;103028.91;5070203;27;45525;-83
2024/02/01 12:39:34;;;;;;;;;0.00;0.00;;;;;14.38;100.00;103036.81;5076022;27;45513;-87
2024/02/01 12:42:03;;;;;;;;;0.00;0.00;;;;;14.33;100.00;103031.59;5091856;27;45383;-86
2024/02/01 12:44:33;;;;;;;;;0.00;0.00;;;;;14.32;100.00;103040.34;5074750;28;45471;-86
2024/02/01 12:47:04;;;;;;;;;0.00;0.00;;;;;14.27;100.00;103035.13;5075950;27;47028;-87
2024/02/01 12:49:29;;;;;;;;;0.00;0.00;;;;;14.24;100.00;103027.28;5074842;27;45500;-87
2024/02/01 12:51:55;;;;;;;;;0.00;0.00;;;;;14.33;100.00;103029.84;5074988;27;52810;-87
2024/02/01 12:54:21;;;;;;;;;0.00;0.00;;;;;14.36;100.00;103028.97;5075888;28;47744;-87
2024/02/01 12:56:47;;;;;;;;;0.00;0.00;;;;;14.41;100.00;103034.16;5076335;28;46966;-87
2024/02/01 12:59:13;;;;;;;;;0.00;0.00;;;;;14.59;100.00;103009.56;5075965;27;45366;-87
2024/02/01 13:01:38;;;;;;;;;0.00;0.00;;;;;14.87;100.00;103032.00;5074960;27;45487;-85
2024/02/01 13:04:34;;;;;;;;;0.00;0.00;;;;;14.88;100.00;103032.88;5076003;28;45495;-90
2024/02/01 13:06:59;;;;;;;;;0.00;0.00;;;;;14.99;100.00;103040.63;5065427;27;46980;-89
2024/02/01 13:09:33;;;;;;;;;0.00;0.00;;;;;14.95;100.00;103031.94;5074636;27;45423;-87
2024/02/01 13:11:59;;;;;;;;;0.00;0.00;;;;;15.06;100.00;103037.03;5088059;27;45465;-88
2024/02/01 13:14:33;;;;;;;;;0.00;0.00;;;;;15.16;100.00;103041.31;5096107;27;69347;-91
2024/02/01 13:16:59;;;;;;;;;0.00;0.00;;;;;15.16;100.00;103036.06;5077359;27;46538;-89
2024/02/01 13:19:24;;;;;;;;;0.00;0.00;;;;;15.21;100.00;103041.25;5076885;28;45387;-90
2024/02/01 13:21:53;;;;;;;;;0.00;0.00;;;;;15.20;100.00;103034.28;5072532;27;46148;-92
2024/02/01 13:24:28;;;;;;;;;0.00;0.00;;;;;15.18;100.00;103022.94;5074404;28;47217;-88
2024/02/01 13:26:53;;;;;;;;;0.00;0.00;;;;;15.30;100.00;103030.66;5075141;27;46960;-89
2024/02/01 13:29:19;;;;;;;;;2.33;2.33;;;;;15.47;100.00;103033.06;5075660;28;51965;-91
2024/02/01 13:31:47;;;;;;;;;0.00;0.00;;;;;15.68;100.00;103035.41;5075496;27;45489;-88
2024/02/01 13:34:13;;;;;;;;;0.00;0.00;;;;;15.77;100.00;103021.31;5077469;28;45555;-91
2024/02/01 13:36:38;;;;;;;;;0.00;0.00;;;;;15.85;100.00;103022.06;5073849;27;63687;-89
2024/02/01 13:39:05;;;;;;;;;0.00;0.00;;;;;15.83;100.00;103028.25;5074707;28;49193;-89
2024/02/01 13:41:32;;;;;;;;;0.00;0.00;;;;;15.77;100.00;103021.31;5073922;27;45400;-88
2024/02/01 13:43:59;;;;;;;;;0.00;0.00;;;;;15.70;100.00;103017.00;5057922;28;45831;-89
2024/02/01 13:46:24;;;;;;;;;0.00;0.00;;;;;15.63;100.00;103025.84;5048493;28;46895;-89
2024/02/01 13:48:49;;;;;;;;;0.00;0.00;;;;;15.48;100.00;103030.41;5058751;28;64908;-88
2024/02/01 13:51:15;;;;;;;;;0.00;0.00;;;;;15.26;100.00;103042.94;5059620;28;45365;-89
2024/02/01 13:53:40;;;;;;;;;4.00;4.00;;;;;15.01;100.00;103037.13;5053491;28;45292;-88
2024/02/01 13:56:08;;;;;;;;;0.00;0.00;;;;;14.83;100.00;103029.44;5074661;28;46304;-89
2024/02/01 13:58:34;;;;;;;;;0.00;0.00;;;;;14.76;100.00;103040.88;5076633;27;45423;-88
2024/02/01 14:00:59;;;;;;;;;0.00;0.00;;;;;14.65;100.00;103038.34;5083332;27;50803;-90
2024/02/01 14:03:25;;;;;;;;;0.00;0.00;;;;;14.54;100.00;103043.63;5096992;27;45391;-89
2024/02/01 14:05:50;;;;;;;;;0.00;0.00;;;;;14.49;100.00;103051.56;5096830;27;47763;-89
2024/02/01 14:08:16;;;;;;;;;0.00;0.00;;;;;14.38;100.00;103037.69;5094581;27;51910;-89
2024/02/01 14:10:41;;;;;;;;;0.00;0.00;;;;;14.25;100.00;103039.53;5076855;28;45205;-91
2024/02/01 14:13:06;;;;;;;;;0.00;0.00;;;;;14.19;100.00;103046.53;5061855;28;46010;-90
2024/02/01 14:15:32;;;;;;;;;0.00;0.00;;;;;14.11;100.00;103049.22;5075398;28;45386;-88
2024/02/01 14:18:01;;;;;;;;;0.00;0.00;;;;;14.14;100.00;103057.94;5075458;28;45418;-89
2024/02/01 14:20:26;;;;;;;;;0.00;0.00;;;;;14.19;100.00;103051.78;5057731;28;46834;-89
2024/02/01 14:22:51;;;;;;;;;0.00;0.00;;;;;14.36;100.00;103049.03;5047139;28;66550;-88
2024/02/01 14:25:17;;;;;;;;;0.00;0.00;;;;;14.51;100.00;103046.31;5058626;28;46486;-89
2024/02/01 14:27:42;;;;;;;;;0.00;0.00;;;;;14.60;100.00;103061.09;5074880;28;45727;-89
2024/02/01 14:30:10;;;;;;;;;0.00;0.00;;;;;14.60;100.00;103069.84;5076850;27;45412;-87
2024/02/01 14:32:37;;;;;;;;;0.00;0.00;;;;;14.53;100.00;103063.75;5061573;27;45485;-89
2024/02/01 14:35:03;;;;;;;;;0.00;0.00;;;;;14.49;100.00;103059.41;5080153;27;47549;-89
2024/02/01 14:37:29;;;;;;;;;0.50;0.50;;;;;14.41;100.00;103069.09;5075778;27;45994;-90
2024/02/01 14:39:54;;;;;;;;;0.00;0.00;;;;;14.30;100.00;103066.56;5073019;28;45467;-90
2024/02/01 14:42:22;;;;;;;;;0.00;0.00;;;;;14.27;100.00;103063.09;5072458;28;45475;-89
2024/02/01 14:44:48;;;;;;;;;0.00;0.00;;;;;14.23;100.00;103066.63;5073816;28;59476;-90
2024/02/01 14:47:17;;;;;;;;;0.00;0.00;;;;;14.16;100.00;103070.16;5059111;28;51683;-90
2024/02/01 14:49:43;;;;;;;;;0.00;0.00;;;;;14.04;100.00;103071.09;5075773;28;45415;-90
2024/02/01 14:52:16;;;;;;;;;0.00;0.00;;;;;14.05;100.00;103080.69;5074188;28;62592;-89
2024/02/01 14:54:41;;;;;;;;;0.00;0.00;;;;;13.92;100.00;103074.66;5073784;27;45293;-90
2024/02/01 14:57:44;;;;;;;;;0.00;0.00;;;;;13.87;100.00;103074.72;5061076;28;53463;-92
2024/02/01 15:07:43;;;;;;;;;0.00;0.00;;;;;13.75;100.00;103088.69;4972070;28;45348;-92
2024/02/01 15:10:00;;;;;;;;;0.00;0.00;;;;;13.66;100.00;103080.03;4947025;28;45366;-91
2024/02/01 15:13:27;;;;;;;;;;;;;;;;;;;;;
2024/02/01 15:18:45;;;;;;;;;0.00;0.00;;;;;13.63;100.00;103094.00;4863213;29;45581;-92
2024/02/01 15:21:17;;;;;;;;;0.00;0.00;;;;;13.60;100.00;103088.78;4847453;29;45694;-91
2024/02/01 15:23:45;;;;;;;;;0.00;0.00;;;;;13.57;100.00;103080.94;4865099;29;45349;-92
2024/02/01 15:26:12;;;;;;;;;0.00;0.00;;;;;13.58;100.00;103098.38;4865932;29;45411;-91
2024/02/01 15:28:40;;;;;;;;;0.00;0.00;;;;;13.63;100.00;103098.34;4865726;29;46716;-91
2024/02/01 15:31:11;;;;;;;;;0.00;0.00;;;;;13.52;100.00;103095.78;4865923;29;45582;-91
2024/02/01 15:33:39;;;;;;;;;0.00;0.00;;;;;13.52;100.00;103094.06;4863437;29;46795;-91
2024/02/01 15:36:06;;;;;;;;;0.00;0.00;;;;;13.43;100.00;103099.31;4835129;29;45300;-91
2024/02/01 15:38:32;;;;;;;;;0.00;0.00;;;;;13.48;100.00;103100.19;4865725;29;45566;-91
2024/02/01 15:40:57;;;;;;;;;0.00;0.00;;;;;13.45;100.00;103099.31;4862533;29;45563;-86
2024/02/01 15:43:23;;;;;;;;;0.00;0.00;;;;;13.41;100.00;103106.31;4865314;29;61806;-88
2024/02/01 15:45:50;;;;;;;;;0.00;0.00;;;;;13.52;100.00;103095.78;4882583;29;45634;-89
2024/02/01 15:48:16;;;;;;;;;0.00;0.00;;;;;13.65;100.00;103099.22;4861928;29;47296;-88
2024/02/01 15:50:42;;;;;;;;;0.00;0.00;;;;;13.38;100.00;103108.06;4880574;28;45527;-87
2024/02/01 15:53:08;;;;;;;;;0.00;0.00;;;;;13.32;100.00;103109.81;4971025;28;45500;-93
2024/02/01 15:55:43;;;;;;;;;0.00;0.00;;;;;13.23;100.00;103107.19;5029433;28;45342;-94
2024/02/01 15:58:11;;;;;;;;;0.00;0.00;;;;;13.17;100.00;103108.06;5078926;28;48098;-92
2024/02/01 16:00:44;;;;;;;;;0.00;0.00;;;;;13.12;100.00;103107.19;5078431;27;45281;-95
2024/02/01 16:03:19;;;;;;;;;0.00;0.00;;;;;13.08;100.00;103105.47;5074266;28;45411;-94
2024/02/01 16:05:50;;;;;;;;;0.00;0.00;;;;;13.12;100.00;103114.19;5058501;28;45450;-93
2024/02/01 16:08:20;;;;;;;;;0.00;0.00;;;;;13.04;100.00;103108.97;5078422;28;47108;-95
2024/02/01 16:10:48;;;;;;;;;1.00;1.00;;;;;13.08;100.00;103131.59;5081461;28;45335;-95
2024/02/01 16:13:14;;;;;;;;;0.00;0.00;;;;;13.01;100.00;103118.53;5080786;27;45412;-95
2024/02/01 16:15:39;;;;;;;;;0.00;0.00;;;;;13.01;100.00;103137.72;5058975;28;45599;-95
2024/02/01 16:18:05;;;;;;;;;0.00;0.00;;;;;12.95;100.00;103122.03;5070652;28;47878;-93
2024/02/01 16:20:50;;;;;;;;;0.00;0.00;;;;;12.99;100.00;103126.38;5058258;28;45405;-89
2024/02/01 16:23:58;;;;;;;;;0.00;0.00;;;;;12.94;100.00;103125.50;5078322;28;45348;-91
2024/02/01 16:26:30;;;;;;;;;0.00;0.00;;;;;12.94;100.00;103131.59;5078702;28;45402;-91
2024/02/01 16:28:59;;;;;;;;;0.00;0.00;;;;;12.82;100.00;103131.63;5076473;28;45552;-91
2024/02/01 16:31:51;;;;;;;;;0.00;0.00;;;;;12.81;100.00;103135.09;5077312;27;45489;-91
2024/02/01 16:34:35;;;;;;;;;0.00;0.00;;;;;12.73;100.00;103136.84;5074063;27;45489;-90
2024/02/01 16:37:02;;;;;;;;;0.00;0.00;;;;;12.71;100.00;103143.81;5062000;28;45234;-92
2024/02/01 16:40:00;;;;;;;;;0.00;0.00;;;;;12.69;100.00;103138.59;5076854;28;45801;-91
2024/02/01 16:42:44;;;;;;;;;0.00;0.00;;;;;12.63;100.00;103148.16;5094742;27;45344;-90
2024/02/01 16:45:22;;;;;;;;;0.00;0.00;;;;;12.60;100.00;103159.50;5076217;28;45824;-92
2024/02/01 16:48:01;;;;;;;;;0.00;0.00;;;;;12.52;100.00;103158.63;5077102;28;45723;-90
2024/02/01 16:50:36;;;;;;;;;0.00;0.00;;;;;12.54;100.00;103169.94;5073624;27;47345;-89
2024/02/01 16:53:02;;;;;;;;;0.00;0.00;;;;;12.48;100.00;103170.81;5078190;27;45429;-88
2024/02/01 16:56:03;;;;;;;;;0.00;0.00;;;;;12.46;100.00;103156.88;5059851;28;45485;-90
2024/02/01 16:58:53;;;;;;;;;0.00;0.00;;;;;12.45;100.00;103162.09;5002388;28;45238;-90
2024/02/01 17:05:03;;;;;;;;;0.00;0.00;;;;;12.38;100.00;103166.41;4956453;28;45529;-91
2024/02/01 17:08:18;;;;;;;;;0.00;0.00;;;;;12.40;100.00;103173.38;4944703;28;45603;-94
2024/02/01 17:11:47;;;;;;;;;0.00;0.00;;;;;12.39;100.00;103163.81;4937949;28;45503;-94
2024/02/01 17:23:41;;;;;;;;;0.00;0.00;;;;;12.39;100.00;103199.50;5061876;22;45819;-93
2024/02/01 17:26:26;;;;;;;;;0.00;0.00;;;;;12.35;100.00;103189.91;5053288;28;46792;-93
2024/02/01 17:28:58;;;;;;;;;0.00;0.00;;;;;12.31;100.00;103183.81;5057078;28;45484;-92
2024/02/01 17:31:34;;;;;;;;;0.00;0.00;;;;;12.31;100.00;103191.66;5053346;28;45455;-88
2024/02/01 17:34:04;;;;;;;;;0.00;0.00;;;;;12.38;100.00;103205.59;5053351;28;45358;-92
2024/02/01 17:36:45;;;;;;;;;0.00;0.00;;;;;12.36;100.00;103202.09;5042469;28;45469;-90
2024/02/01 17:39:12;;;;;;;;;0.00;0.00;;;;;12.31;100.00;103199.50;5037633;28;45449;-92
2024/02/01 17:41:58;;;;;;;;;0.00;0.00;;;;;12.25;100.00;103191.63;5049947;28;45416;-93
2024/02/01 17:47:49;;;;;;;;;0.00;0.00;;;;;12.29;100.00;103211.66;5013814;28;46156;-87
2024/02/01 17:50:34;;;;;;;;;0.00;0.00;;;;;12.22;100.00;103198.56;4982236;28;45248;-87
2024/02/01 17:53:03;;;;;;;;;0.00;0.00;;;;;12.13;100.00;103186.38;5000458;28;45342;-88
2024/02/01 17:55:47;;;;;;;;;0.00;0.00;;;;;12.13;100.00;103199.44;4995989;28;45640;-87
2024/02/01 17:58:37;;;;;;;;;0.00;0.00;;;;;12.09;100.00;103205.47;4998101;28;46254;-90
2024/02/01 18:01:21;;;;;;;;;0.00;0.00;;;;;12.02;100.00;103204.59;4981501;28;45506;-86
2024/02/01 18:04:01;;;;;;;;;0.00;0.00;;;;;11.99;100.00;103212.41;4997462;28;45635;-88
2024/02/01 18:06:36;;;;;;;;;0.00;0.00;;;;;12.00;100.00;103212.41;4994208;28;45552;-86
2024/02/01 18:09:02;;;;;;;;;0.00;0.00;;;;;11.90;100.00;103207.13;4997688;28;47202;-87
2024/02/01 18:11:27;;;;;;;;;0.00;0.00;;;;;11.85;100.00;103209.72;4979535;28;45750;-87
2024/02/01 18:13:53;;;;;;;;;0.00;0.00;;;;;11.78;100.00;103208.78;4995898;28;45458;-83
2024/02/01 18:16:25;;;;;;;;;0.00;0.00;;;;;11.72;100.00;103200.94;4996813;28;45433;-86
2024/02/01 18:19:06;;;;;;;;;0.00;0.00;;;;;11.75;100.00;103203.53;5012732;28;46584;-86
2024/02/01 18:21:32;;;;;;;;;0.00;0.00;;;;;11.73;100.00;103218.31;5001605;28;45489;-86
2024/02/01 18:23:57;;;;;;;;;0.00;0.00;;;;;11.78;100.00;103208.78;5004930;28;45488;-85
2024/02/01 18:26:30;;;;;;;;;0.00;0.00;;;;;11.72;100.00;103193.09;5048801;28;45395;-87
2024/02/01 18:28:58;;;;;;;;;0.00;0.00;;;;;11.65;100.00;103196.53;5046885;28;46018;-88
2024/02/01 18:31:23;;;;;;;;;0.00;0.00;;;;;11.62;100.00;103213.03;5027119;28;45511;-85
2024/02/01 18:33:53;;;;;;;;;0.00;0.00;;;;;11.62;100.00;103222.59;5021727;28;45325;-86
2024/02/01 18:36:29;;;;;;;;;0.00;0.00;;;;;11.68;100.00;103234.81;5046395;28;45566;-85
2024/02/01 18:39:04;;;;;;;;;0.00;0.00;;;;;11.65;100.00;103229.59;5071417;28;46939;-87
2024/02/01 18:41:33;;;;;;;;;0.00;0.00;;;;;11.59;100.00;103239.13;5048499;28;45443;-86
2024/02/01 18:44:18;;;;;;;;;0.00;0.00;;;;;11.71;100.00;103242.66;5038465;28;45473;-86
2024/02/01 18:46:47;;;;;;;;;0.00;0.00;;;;;11.71;100.00;103230.50;5050687;28;45305;-86
2024/02/01 18:49:14;;;;;;;;;0.00;0.00;;;;;11.69;100.00;103224.38;5059642;28;45655;-89
2024/02/01 18:52:15;;;;;;;;;0.00;0.00;;;;;11.70;100.00;103227.88;5041341;28;45423;-86
2024/02/01 18:54:40;;;;;;;;;0.00;0.00;;;;;11.75;100.00;103234.84;4961673;28;45722;-87
2024/02/01 18:57:33;;;;;;;;;0.00;0.00;;;;;11.82;100.00;103220.97;4958571;28;45523;-86
2024/02/01 19:00:03;;;;;;;;;0.00;0.00;;;;;11.80;100.00;103201.84;4949043;28;46419;-90
2024/02/01 19:02:49;;;;;;;;;0.00;0.00;;;;;11.78;100.00;103182.69;4977576;28;45494;-91
2024/02/01 19:05:15;;;;;;;;;0.00;0.00;;;;;11.85;100.00;103188.84;4962226;28;45425;-90
2024/02/01 19:08:19;;;;;;;;;0.00;0.00;;;;;11.92;100.00;103214.13;4960340;28;45539;-90
2024/02/01 19:10:51;;;;;;;;;0.00;0.00;;;;;11.91;100.00;103201.06;4942815;28;47209;-90
2024/02/01 19:14:19;;;;;;;;;;;;;;;;;;;;;
2024/02/01 19:17:21;;;;;;;;;0.00;0.00;;;;;11.68;100.00;103209.63;4975522;28;69414;-90
2024/02/01 19:20:56;;;;;;;;;0.00;0.00;;;;;11.62;100.00;103199.13;4975517;28;45513;-91
2024/02/01 19:33:41;;;;;;;;;;;;;;;;;;;;;
2024/02/01 19:40:24;;;;;;;;;;;;;;;;;;;;;
2024/02/01 19:43:30;;;;;;;;;0.00;0.00;;;;;11.43;100.00;103232.03;4833019;29;67276;-93
2024/02/01 19:46:18;;;;;;;;;0.00;0.00;;;;;11.36;100.00;103222.44;4842964;29;45620;-93
2024/02/01 19:49:14;;;;;;;;;;;;;;;;;;;;;
2024/02/01 19:51:49;;;;;;;;;0.00;0.00;;;;;11.30;100.00;103233.69;4834527;29;46353;-94
2024/02/01 19:54:15;;;;;;;;;0.00;0.00;;;;;11.28;100.00;103237.16;4812524;29;45468;-93